Time;durP1;ratioP1;P1;durP2;ratioP2;P2;SDS_P1;SDS_P2;PMS_P1;PMS_P2;Temp;Humidity;BMP_temperature;BMP_pressure;BME280_temperature;BME280_humidity;BME280_pressure;Samples;Min_cycle;Max_cycle;Signal;HPM_P1;HPM_P2
2022/04/04 00:00:52;;;;;;;0.85;0.20;;;;;;;;;;5006761;28;20186;-75
2022/04/04 00:03:18;;;;;;;0.22;0.17;;;;;;;;;;5003914;28;20276;-74
2022/04/04 00:05:45;;;;;;;0.00;0.00;;;;;;;;;;5002020;28;20019;-74
2022/04/04 00:08:11;;;;;;;0.00;0.00;;;;;;;;;;5003105;28;20087;-71
2022/04/04 00:10:37;;;;;;;0.00;0.00;;;;;;;;;;5002062;28;20085;-74
2022/04/04 00:13:03;;;;;;;0.00;0.00;;;;;;;;;;5001868;28;20201;-74
2022/04/04 00:15:29;;;;;;;0.00;0.00;;;;;;;;;;5002682;28;20054;-74
2022/04/04 00:17:55;;;;;;;0.00;0.00;;;;;;;;;;5006315;28;20024;-74
2022/04/04 00:20:22;;;;;;;0.00;0.00;;;;;;;;;;4998417;28;20026;-73
2022/04/04 00:22:48;;;;;;;0.00;0.00;;;;;;;;;;5007166;28;20076;-74
2022/04/04 00:25:14;;;;;;;0.40;0.10;;;;;;;;;;5009466;28;20064;-73
2022/04/04 00:27:41;;;;;;;0.00;0.00;;;;;;;;;;4995607;28;20396;-73
2022/04/04 00:30:07;;;;;;;0.00;0.00;;;;;;;;;;5006259;28;20252;-74
2022/04/04 00:32:36;;;;;;;0.00;0.00;;;;;;;;;;5007202;28;20309;-73
2022/04/04 00:35:02;;;;;;;0.00;0.00;;;;;;;;;;5001214;28;20032;-73
2022/04/04 00:37:28;;;;;;;0.00;0.00;;;;;;;;;;5002570;28;20036;-73
2022/04/04 00:39:54;;;;;;;0.00;0.00;;;;;;;;;;5002823;28;20054;-74
2022/04/04 00:42:20;;;;;;;0.13;0.13;;;;;;;;;;5009041;28;20276;-74
2022/04/04 00:44:46;;;;;;;0.00;0.00;;;;;;;;;;5003960;28;20084;-73
2022/04/04 00:47:12;;;;;;;0.00;0.00;;;;;;;;;;4999438;28;20022;-74
2022/04/04 00:49:38;;;;;;;0.00;0.00;;;;;;;;;;5013001;28;20317;-74
2022/04/04 00:52:05;;;;;;;0.00;0.00;;;;;;;;;;4997740;28;20018;-74
2022/04/04 00:54:32;;;;;;;0.00;0.00;;;;;;;;;;4996974;28;20034;-74
2022/04/04 00:56:58;;;;;;;0.13;0.00;;;;;;;;;;4998127;28;20089;-72
2022/04/04 00:59:24;;;;;;;0.00;0.00;;;;;;;;;;4997767;28;20030;-74
2022/04/04 01:01:50;;;;;;;0.00;0.00;;;;;;;;;;5016956;28;20092;-74
2022/04/04 01:04:16;;;;;;;0.10;0.10;;;;;;;;;;5017053;28;20026;-74
2022/04/04 01:06:46;;;;;;;0.20;0.00;;;;;;;;;;5017465;28;20116;-74
2022/04/04 01:09:15;;;;;;;0.00;0.00;;;;;;;;;;5016869;28;20345;-74
2022/04/04 01:12:00;;;;;;;0.17;0.17;;;;;;;;;;5017163;28;20216;-73
2022/04/04 01:14:26;;;;;;;0.00;0.00;;;;;;;;;;5017050;28;20053;-74
2022/04/04 01:16:52;;;;;;;0.35;0.35;;;;;;;;;;4996396;28;20033;-74
2022/04/04 01:19:18;;;;;;;0.00;0.00;;;;;;;;;;4999382;28;20270;-74
2022/04/04 01:21:44;;;;;;;0.68;0.57;;;;;;;;;;4998117;28;20026;-74
2022/04/04 01:24:28;;;;;;;0.00;0.00;;;;;;;;;;4996082;28;20034;-74
2022/04/04 01:26:54;;;;;;;0.00;0.00;;;;;;;;;;5004982;28;20574;-74
2022/04/04 01:29:21;;;;;;;0.05;0.00;;;;;;;;;;4997561;28;20249;-74
2022/04/04 01:31:48;;;;;;;0.00;0.00;;;;;;;;;;4997238;28;20077;-73
2022/04/04 01:34:14;;;;;;;0.00;0.00;;;;;;;;;;4996591;28;20033;-70
2022/04/04 01:36:40;;;;;;;0.10;0.00;;;;;;;;;;4997849;28;20046;-75
2022/04/04 01:39:06;;;;;;;1.35;0.52;;;;;;;;;;5015741;28;20017;-75
2022/04/04 01:41:32;;;;;;;1.65;1.13;;;;;;;;;;5016694;28;20161;-72
2022/04/04 01:43:58;;;;;;;0.10;0.10;;;;;;;;;;5016991;28;20309;-74
2022/04/04 01:46:24;;;;;;;0.00;0.00;;;;;;;;;;5016028;28;20021;-73
2022/04/04 01:48:51;;;;;;;0.00;0.00;;;;;;;;;;5010261;28;20018;-71
2022/04/04 01:51:17;;;;;;;0.10;0.10;;;;;;;;;;4997015;28;20030;-74
2022/04/04 01:53:43;;;;;;;0.08;0.08;;;;;;;;;;5015878;28;20120;-74
2022/04/04 01:56:10;;;;;;;0.00;0.00;;;;;;;;;;4998749;28;20033;-74
2022/04/04 01:58:36;;;;;;;0.00;0.00;;;;;;;;;;4999163;28;20013;-75
2022/04/04 02:01:04;;;;;;;0.00;0.00;;;;;;;;;;5015529;28;20216;-74
2022/04/04 02:03:31;;;;;;;0.00;0.00;;;;;;;;;;5016156;28;20353;-73
2022/04/04 02:05:58;;;;;;;0.00;0.00;;;;;;;;;;4998999;28;20018;-74
2022/04/04 02:08:24;;;;;;;0.00;0.00;;;;;;;;;;4998129;28;20013;-74
2022/04/04 02:10:50;;;;;;;0.00;0.00;;;;;;;;;;4998883;28;20097;-74
2022/04/04 02:13:16;;;;;;;0.05;0.05;;;;;;;;;;5015537;28;20076;-74
2022/04/04 02:15:43;;;;;;;0.10;0.10;;;;;;;;;;5015852;28;20105;-74
2022/04/04 02:18:09;;;;;;;0.47;0.10;;;;;;;;;;5014942;28;20014;-74
2022/04/04 02:20:35;;;;;;;0.00;0.00;;;;;;;;;;5015816;28;20033;-74
2022/04/04 02:23:01;;;;;;;0.08;0.08;;;;;;;;;;4998186;28;20077;-70
2022/04/04 02:25:27;;;;;;;0.00;0.00;;;;;;;;;;5004882;28;20029;-72
2022/04/04 02:27:53;;;;;;;1.98;0.10;;;;;;;;;;5004585;28;20026;-74
2022/04/04 02:30:19;;;;;;;0.00;0.00;;;;;;;;;;5013758;28;20139;-74
2022/04/04 02:32:46;;;;;;;0.98;0.25;;;;;;;;;;4995005;28;20029;-73
2022/04/04 02:35:12;;;;;;;0.00;0.00;;;;;;;;;;5003603;28;20230;-73
2022/04/04 02:37:38;;;;;;;0.00;0.00;;;;;;;;;;5015624;28;20033;-74
2022/04/04 02:40:05;;;;;;;0.00;0.00;;;;;;;;;;5014837;28;20336;-72
2022/04/04 02:42:31;;;;;;;0.00;0.00;;;;;;;;;;5003145;28;20030;-73
2022/04/04 02:44:58;;;;;;;0.00;0.00;;;;;;;;;;5004166;28;20086;-74
2022/04/04 02:47:24;;;;;;;0.00;0.00;;;;;;;;;;5007082;28;20026;-73
2022/04/04 02:49:50;;;;;;;0.98;0.63;;;;;;;;;;5015682;28;20060;-73
2022/04/04 02:52:16;;;;;;;0.00;0.00;;;;;;;;;;4997483;28;20030;-75
2022/04/04 02:54:42;;;;;;;0.00;0.00;;;;;;;;;;5000878;28;20057;-74
2022/04/04 02:57:08;;;;;;;0.00;0.00;;;;;;;;;;5013920;28;20020;-75
2022/04/04 02:59:34;;;;;;;0.52;0.32;;;;;;;;;;4995988;28;20034;-71
2022/04/04 03:02:00;;;;;;;0.00;0.00;;;;;;;;;;4996034;28;20057;-74
2022/04/04 03:04:27;;;;;;;0.00;0.00;;;;;;;;;;5006187;28;20025;-74
2022/04/04 03:06:53;;;;;;;0.17;0.10;;;;;;;;;;4997720;28;20233;-74
2022/04/04 03:09:19;;;;;;;0.00;0.00;;;;;;;;;;5014648;28;20081;-73
2022/04/04 03:11:45;;;;;;;0.05;0.00;;;;;;;;;;5015160;28;20018;-74
2022/04/04 03:14:11;;;;;;;0.00;0.00;;;;;;;;;;4997624;28;20439;-69
2022/04/04 03:16:37;;;;;;;0.00;0.00;;;;;;;;;;4996076;28;20098;-73
2022/04/04 03:19:03;;;;;;;0.00;0.00;;;;;;;;;;5013927;28;20088;-74
2022/04/04 03:21:29;;;;;;;0.00;0.00;;;;;;;;;;4997773;28;20026;-73
2022/04/04 03:23:55;;;;;;;0.00;0.00;;;;;;;;;;5014597;28;20022;-74
2022/04/04 03:26:21;;;;;;;0.00;0.00;;;;;;;;;;4997719;28;20308;-73
2022/04/04 03:28:47;;;;;;;0.10;0.10;;;;;;;;;;4997757;28;20102;-73
2022/04/04 03:31:14;;;;;;;0.00;0.00;;;;;;;;;;5014370;28;20025;-73
2022/04/04 03:33:40;;;;;;;0.00;0.00;;;;;;;;;;4997537;28;20169;-74
2022/04/04 03:36:06;;;;;;;0.00;0.00;;;;;;;;;;4996840;28;20022;-73
2022/04/04 03:38:33;;;;;;;0.00;0.00;;;;;;;;;;5014570;28;20024;-73
2022/04/04 03:40:59;;;;;;;0.00;0.00;;;;;;;;;;4996943;28;20032;-74
2022/04/04 03:43:25;;;;;;;0.00;0.00;;;;;;;;;;5014752;28;20040;-73
2022/04/04 03:45:51;;;;;;;0.00;0.00;;;;;;;;;;5014258;28;20033;-69
2022/04/04 03:48:18;;;;;;;0.00;0.00;;;;;;;;;;4997588;28;20148;-73
2022/04/04 03:50:45;;;;;;;0.10;0.10;;;;;;;;;;4994287;28;20379;-74
2022/04/04 03:53:11;;;;;;;0.00;0.00;;;;;;;;;;5014720;28;20025;-73
2022/04/04 03:55:39;;;;;;;0.00;0.00;;;;;;;;;;5018473;28;20762;-73
2022/04/04 03:58:08;;;;;;;0.00;0.00;;;;;;;;;;5018084;28;20042;-73
2022/04/04 04:00:34;;;;;;;0.00;0.00;;;;;;;;;;5001406;28;20017;-73
2022/04/04 04:03:00;;;;;;;0.00;0.00;;;;;;;;;;5018095;28;20054;-70
2022/04/04 04:05:27;;;;;;;0.00;0.00;;;;;;;;;;5001666;28;20022;-73
2022/04/04 04:07:53;;;;;;;0.00;0.00;;;;;;;;;;5018237;28;20316;-74
2022/04/04 04:10:19;;;;;;;0.00;0.00;;;;;;;;;;5018972;28;20049;-73
2022/04/04 04:12:46;;;;;;;0.05;0.05;;;;;;;;;;5018925;28;20025;-71
2022/04/04 04:15:13;;;;;;;0.00;0.00;;;;;;;;;;5017803;28;20640;-74
2022/04/04 04:17:39;;;;;;;0.00;0.00;;;;;;;;;;5019070;28;20022;-74
2022/04/04 04:20:26;;;;;;;0.00;0.00;;;;;;;;;;5018308;28;20018;-75
2022/04/04 04:22:56;;;;;;;0.00;0.00;;;;;;;;;;5017967;28;20029;-71
2022/04/04 04:25:24;;;;;;;0.55;0.55;;;;;;;;;;5001105;28;20021;-74
2022/04/04 04:27:50;;;;;;;0.00;0.00;;;;;;;;;;5001314;28;20076;-74
2022/04/04 04:30:17;;;;;;;0.00;0.00;;;;;;;;;;5000981;28;20315;-74
2022/04/04 04:32:48;;;;;;;0.00;0.00;;;;;;;;;;5000753;28;20205;-70
2022/04/04 04:35:15;;;;;;;0.00;0.00;;;;;;;;;;5000365;28;20037;-74
2022/04/04 04:37:41;;;;;;;0.00;0.00;;;;;;;;;;5009755;28;20068;-74
2022/04/04 04:40:08;;;;;;;0.00;0.00;;;;;;;;;;5017487;28;20289;-74
2022/04/04 04:42:34;;;;;;;0.00;0.00;;;;;;;;;;5018195;28;20024;-74
2022/04/04 04:45:01;;;;;;;0.00;0.00;;;;;;;;;;5000334;28;20026;-71
2022/04/04 04:47:28;;;;;;;1.00;0.52;;;;;;;;;;5010130;28;20030;-74
2022/04/04 04:49:54;;;;;;;0.00;0.00;;;;;;;;;;5017258;28;20029;-74
2022/04/04 04:52:21;;;;;;;0.32;0.32;;;;;;;;;;5018197;28;20350;-74
2022/04/04 04:54:47;;;;;;;0.00;0.00;;;;;;;;;;5017803;28;20022;-73
2022/04/04 04:57:13;;;;;;;0.00;0.00;;;;;;;;;;4998754;28;20101;-74
2022/04/04 04:59:39;;;;;;;0.00;0.00;;;;;;;;;;5017853;28;20060;-74
2022/04/04 05:02:05;;;;;;;0.00;0.00;;;;;;;;;;4999111;28;20092;-74
2022/04/04 05:04:31;;;;;;;0.00;0.00;;;;;;;;;;5003180;28;20096;-74
2022/04/04 05:06:57;;;;;;;0.00;0.00;;;;;;;;;;4996254;28;20368;-74
2022/04/04 05:09:23;;;;;;;0.28;0.28;;;;;;;;;;5008966;28;20084;-74
2022/04/04 05:11:50;;;;;;;0.00;0.00;;;;;;;;;;5002223;28;20042;-75
2022/04/04 05:14:16;;;;;;;0.00;0.00;;;;;;;;;;5001034;28;20036;-74
2022/04/04 05:16:45;;;;;;;0.00;0.00;;;;;;;;;;5002924;28;20094;-75
2022/04/04 05:19:12;;;;;;;0.00;0.00;;;;;;;;;;5015276;28;20215;-74
2022/04/04 05:21:38;;;;;;;0.00;0.00;;;;;;;;;;5003516;28;20133;-70
2022/04/04 05:24:05;;;;;;;0.00;0.00;;;;;;;;;;5013569;28;20026;-75
2022/04/04 05:26:31;;;;;;;0.00;0.00;;;;;;;;;;5008845;28;20068;-75
2022/04/04 05:28:57;;;;;;;0.10;0.10;;;;;;;;;;4998897;28;20026;-76
2022/04/04 05:31:24;;;;;;;0.00;0.00;;;;;;;;;;4983253;28;20022;-75
2022/04/04 05:33:50;;;;;;;0.00;0.00;;;;;;;;;;4996428;28;20033;-70
2022/04/04 05:36:16;;;;;;;0.00;0.00;;;;;;;;;;5008748;28;20305;-74
2022/04/04 05:38:42;;;;;;;0.00;0.00;;;;;;;;;;4999410;28;20025;-73
2022/04/04 05:41:09;;;;;;;0.10;0.10;;;;;;;;;;5008580;28;20029;-72
2022/04/04 05:43:36;;;;;;;0.00;0.00;;;;;;;;;;5008973;28;20101;-75
2022/04/04 05:46:02;;;;;;;0.00;0.00;;;;;;;;;;4998905;28;20050;-76
2022/04/04 05:48:30;;;;;;;0.00;0.00;;;;;;;;;;5004038;28;20106;-75
2022/04/04 05:50:56;;;;;;;0.47;0.47;;;;;;;;;;5016159;28;20025;-75
2022/04/04 05:53:23;;;;;;;0.00;0.00;;;;;;;;;;5012410;28;20030;-75
2022/04/04 05:56:08;;;;;;;0.00;0.00;;;;;;;;;;5008189;28;20297;-75
2022/04/04 05:58:34;;;;;;;0.00;0.00;;;;;;;;;;5007211;28;20041;-73
2022/04/04 06:01:00;;;;;;;0.00;0.00;;;;;;;;;;5015395;28;20089;-71
2022/04/04 06:03:26;;;;;;;0.00;0.00;;;;;;;;;;5005618;28;20066;-75
2022/04/04 06:05:53;;;;;;;0.00;0.00;;;;;;;;;;5006149;28;20014;-69
2022/04/04 06:08:19;;;;;;;0.10;0.10;;;;;;;;;;4999223;28;20013;-74
2022/04/04 06:10:45;;;;;;;0.00;0.00;;;;;;;;;;4998922;28;20017;-71
2022/04/04 06:13:15;;;;;;;0.00;0.00;;;;;;;;;;5015620;28;20041;-73
2022/04/04 06:15:42;;;;;;;0.00;0.00;;;;;;;;;;5015995;28;20025;-78
2022/04/04 06:18:09;;;;;;;0.00;0.00;;;;;;;;;;5005986;28;20058;-74
2022/04/04 06:20:35;;;;;;;0.00;0.00;;;;;;;;;;4990600;28;20063;-74
2022/04/04 06:23:02;;;;;;;0.00;0.00;;;;;;;;;;4998163;28;20022;-74
2022/04/04 06:25:28;;;;;;;0.10;0.10;;;;;;;;;;5015842;28;20014;-74
2022/04/04 06:27:54;;;;;;;0.00;0.00;;;;;;;;;;5004254;28;20070;-74
2022/04/04 06:30:21;;;;;;;0.10;0.10;;;;;;;;;;5008093;28;20322;-74
2022/04/04 06:32:47;;;;;;;0.00;0.00;;;;;;;;;;5008196;28;20014;-73
2022/04/04 06:35:14;;;;;;;0.00;0.00;;;;;;;;;;5012804;28;20455;-71
2022/04/04 06:37:40;;;;;;;0.43;0.10;;;;;;;;;;4996692;28;20057;-73
2022/04/04 06:40:07;;;;;;;0.00;0.00;;;;;;;;;;5013829;28;20049;-74
2022/04/04 06:42:37;;;;;;;0.00;0.00;;;;;;;;;;4994855;28;20034;-73
2022/04/04 06:45:04;;;;;;;0.00;0.00;;;;;;;;;;5006765;28;20045;-73
2022/04/04 06:47:30;;;;;;;0.00;0.00;;;;;;;;;;5015708;28;20022;-74
2022/04/04 06:49:57;;;;;;;0.00;0.00;;;;;;;;;;4997614;28;20178;-73
2022/04/04 06:52:23;;;;;;;0.00;0.00;;;;;;;;;;4998428;28;20344;-73
2022/04/04 06:54:49;;;;;;;0.00;0.00;;;;;;;;;;5000387;28;20053;-75
2022/04/04 06:57:16;;;;;;;1.20;0.20;;;;;;;;;;5004058;28;20052;-75
2022/04/04 06:59:42;;;;;;;0.10;0.10;;;;;;;;;;5000983;28;20410;-74
2022/04/04 07:02:09;;;;;;;0.00;0.00;;;;;;;;;;4995670;28;20054;-73
2022/04/04 07:04:37;;;;;;;0.00;0.00;;;;;;;;;;4995161;28;20114;-74
2022/04/04 07:07:03;;;;;;;0.00;0.00;;;;;;;;;;5006975;28;20018;-76
2022/04/04 07:09:29;;;;;;;0.00;0.00;;;;;;;;;;5015638;28;20119;-74
2022/04/04 07:11:55;;;;;;;0.10;0.10;;;;;;;;;;4997272;28;20030;-74
2022/04/04 07:14:21;;;;;;;0.00;0.00;;;;;;;;;;5015271;28;20030;-74
2022/04/04 07:16:51;;;;;;;0.65;0.65;;;;;;;;;;5007439;28;20026;-73
2022/04/04 07:19:17;;;;;;;0.00;0.00;;;;;;;;;;5006996;28;20044;-73
2022/04/04 07:21:44;;;;;;;0.00;0.00;;;;;;;;;;4995607;28;20030;-74
2022/04/04 07:24:10;;;;;;;0.00;0.00;;;;;;;;;;5000371;28;20061;-74
2022/04/04 07:26:36;;;;;;;0.00;0.00;;;;;;;;;;5005317;28;20068;-73
2022/04/04 07:29:02;;;;;;;0.00;0.00;;;;;;;;;;4993874;28;20030;-74
2022/04/04 07:31:29;;;;;;;0.00;0.00;;;;;;;;;;5012444;28;20022;-78
2022/04/04 07:33:55;;;;;;;0.00;0.00;;;;;;;;;;5010753;28;20097;-70
2022/04/04 07:36:22;;;;;;;0.10;0.00;;;;;;;;;;5004575;28;20043;-71
2022/04/04 07:38:48;;;;;;;0.00;0.00;;;;;;;;;;4994039;28;20076;-74
2022/04/04 07:41:14;;;;;;;0.00;0.00;;;;;;;;;;5006363;28;20347;-76
2022/04/04 07:43:40;;;;;;;0.00;0.00;;;;;;;;;;5001243;28;20193;-75
2022/04/04 07:46:06;;;;;;;0.00;0.00;;;;;;;;;;4998441;28;20304;-75
2022/04/04 07:48:32;;;;;;;0.00;0.00;;;;;;;;;;4992432;28;20029;-74
2022/04/04 07:50:59;;;;;;;0.10;0.10;;;;;;;;;;4985099;28;20318;-74
2022/04/04 07:53:26;;;;;;;0.00;0.00;;;;;;;;;;4999079;28;20026;-74
2022/04/04 07:55:52;;;;;;;0.00;0.00;;;;;;;;;;5000318;28;20060;-73
2022/04/04 07:58:18;;;;;;;0.00;0.00;;;;;;;;;;5002477;28;20014;-75
2022/04/04 08:00:44;;;;;;;0.00;0.00;;;;;;;;;;5001832;28;20110;-76
2022/04/04 08:03:11;;;;;;;0.00;0.00;;;;;;;;;;5008140;28;20080;-71
2022/04/04 08:05:37;;;;;;;0.00;0.00;;;;;;;;;;5001854;28;20050;-73
2022/04/04 08:08:03;;;;;;;0.00;0.00;;;;;;;;;;4997023;28;20029;-80
2022/04/04 08:10:29;;;;;;;0.00;0.00;;;;;;;;;;4997635;28;20262;-80
2022/04/04 08:12:55;;;;;;;0.00;0.00;;;;;;;;;;4995027;28;20045;-75
2022/04/04 08:15:21;;;;;;;0.00;0.00;;;;;;;;;;5001502;28;20084;-74
2022/04/04 08:17:47;;;;;;;0.00;0.00;;;;;;;;;;4998065;28;20034;-77
2022/04/04 08:20:14;;;;;;;0.00;0.00;;;;;;;;;;5001455;28;20095;-76
2022/04/04 08:22:44;;;;;;;0.17;0.00;;;;;;;;;;4999957;28;20888;-72
2022/04/04 08:25:10;;;;;;;0.00;0.00;;;;;;;;;;4999676;28;20198;-81
2022/04/04 08:27:37;;;;;;;0.00;0.00;;;;;;;;;;5000500;28;20206;-75
2022/04/04 08:30:06;;;;;;;0.00;0.00;;;;;;;;;;4999706;28;20083;-76
2022/04/04 08:32:33;;;;;;;0.00;0.00;;;;;;;;;;4998705;28;20085;-79
2022/04/04 08:34:59;;;;;;;0.35;0.10;;;;;;;;;;4997088;28;20038;-72
2022/04/04 08:37:25;;;;;;;0.00;0.00;;;;;;;;;;4998763;28;20022;-72
2022/04/04 08:39:52;;;;;;;0.00;0.00;;;;;;;;;;4995297;28;20635;-73
2022/04/04 08:42:20;;;;;;;0.00;0.00;;;;;;;;;;4998879;28;20062;-72
2022/04/04 08:44:49;;;;;;;0.00;0.00;;;;;;;;;;5001811;28;20018;-74
2022/04/04 08:47:18;;;;;;;0.00;0.00;;;;;;;;;;4999054;28;20070;-73
2022/04/04 08:49:44;;;;;;;0.00;0.00;;;;;;;;;;4999553;28;20025;-74
2022/04/04 08:52:10;;;;;;;0.00;0.00;;;;;;;;;;5000693;28;20022;-76
2022/04/04 08:54:36;;;;;;;0.00;0.00;;;;;;;;;;4985569;28;20240;-70
2022/04/04 08:57:02;;;;;;;0.00;0.00;;;;;;;;;;4984226;28;20686;-76
2022/04/04 08:59:29;;;;;;;0.00;0.00;;;;;;;;;;4977937;28;20033;-76
2022/04/04 09:01:55;;;;;;;0.00;0.00;;;;;;;;;;4976951;28;20078;-72
2022/04/04 09:04:22;;;;;;;0.00;0.00;;;;;;;;;;4976378;28;20041;-72
2022/04/04 09:06:52;;;;;;;0.00;0.00;;;;;;;;;;4984609;28;20092;-72
2022/04/04 09:09:25;;;;;;;0.00;0.00;;;;;;;;;;4984907;28;20335;-73
2022/04/04 09:11:52;;;;;;;0.00;0.00;;;;;;;;;;4984751;28;20949;-72
2022/04/04 09:14:21;;;;;;;0.00;0.00;;;;;;;;;;4983058;28;20025;-70
2022/04/04 09:16:55;;;;;;;0.00;0.00;;;;;;;;;;4975227;28;20376;-68
2022/04/04 09:19:29;;;;;;;0.15;0.15;;;;;;;;;;4982836;28;20026;-71
2022/04/04 09:21:55;;;;;;;0.00;0.00;;;;;;;;;;4971980;28;20033;-76
2022/04/04 09:24:21;;;;;;;0.00;0.00;;;;;;;;;;4984497;28;20447;-73
2022/04/04 09:26:48;;;;;;;0.00;0.00;;;;;;;;;;4969208;28;20291;-72
2022/04/04 09:29:22;;;;;;;0.00;0.00;;;;;;;;;;4984230;28;20053;-70
2022/04/04 09:31:58;;;;;;;0.00;0.00;;;;;;;;;;4986542;28;20556;-71
2022/04/04 09:34:24;;;;;;;0.00;0.00;;;;;;;;;;4976784;28;20345;-74
2022/04/04 09:36:50;;;;;;;0.00;0.00;;;;;;;;;;4977217;28;20032;-75
2022/04/04 09:39:16;;;;;;;0.00;0.00;;;;;;;;;;4982383;28;20022;-72
2022/04/04 09:41:43;;;;;;;0.00;0.00;;;;;;;;;;4986346;28;20029;-70
2022/04/04 09:44:11;;;;;;;0.00;0.00;;;;;;;;;;4983972;28;20033;-70
2022/04/04 09:46:45;;;;;;;0.00;0.00;;;;;;;;;;4986770;28;20643;-70
2022/04/04 09:49:16;;;;;;;0.00;0.00;;;;;;;;;;4984774;28;20052;-73
2022/04/04 09:51:42;;;;;;;0.00;0.00;;;;;;;;;;4984313;28;20022;-70
2022/04/04 09:54:10;;;;;;;0.00;0.00;;;;;;;;;;4984334;28;20527;-69
2022/04/04 09:56:36;;;;;;;0.00;0.00;;;;;;;;;;4984418;28;20175;-70
2022/04/04 09:59:03;;;;;;;0.00;0.00;;;;;;;;;;4970731;28;20030;-69
2022/04/04 10:01:31;;;;;;;0.00;0.00;;;;;;;;;;4973682;28;20227;-76
2022/04/04 10:03:57;;;;;;;0.00;0.00;;;;;;;;;;4984246;28;20088;-71
2022/04/04 10:06:26;;;;;;;0.00;0.00;;;;;;;;;;4985510;28;20056;-73
2022/04/04 10:08:55;;;;;;;0.00;0.00;;;;;;;;;;4985378;28;20037;-71
2022/04/04 10:11:23;;;;;;;0.00;0.00;;;;;;;;;;4984715;28;20017;-71
2022/04/04 10:13:49;;;;;;;0.00;0.00;;;;;;;;;;4969736;28;20292;-70
2022/04/04 10:16:16;;;;;;;0.00;0.00;;;;;;;;;;4984708;28;20033;-78
2022/04/04 10:18:46;;;;;;;0.00;0.00;;;;;;;;;;4984833;28;20374;-71
2022/04/04 10:21:12;;;;;;;0.00;0.00;;;;;;;;;;4983965;28;20121;-72
2022/04/04 10:23:40;;;;;;;0.00;0.00;;;;;;;;;;4983535;28;20041;-71
2022/04/04 10:26:07;;;;;;;0.00;0.00;;;;;;;;;;4973725;28;20034;-70
2022/04/04 10:28:38;;;;;;;0.00;0.00;;;;;;;;;;4984722;28;20537;-77
2022/04/04 10:31:14;;;;;;;0.00;0.00;;;;;;;;;;4986911;28;20025;-75
2022/04/04 10:33:40;;;;;;;0.00;0.00;;;;;;;;;;4972038;28;20034;-76
2022/04/04 10:36:08;;;;;;;0.00;0.00;;;;;;;;;;4984045;28;20032;-71
2022/04/04 10:38:35;;;;;;;0.00;0.00;;;;;;;;;;4972656;28;20655;-71
2022/04/04 10:41:03;;;;;;;0.00;0.00;;;;;;;;;;4975263;28;20029;-73
2022/04/04 10:43:33;;;;;;;0.00;0.00;;;;;;;;;;4983569;28;20042;-70
2022/04/04 10:46:01;;;;;;;0.00;0.00;;;;;;;;;;4983164;28;20021;-69
2022/04/04 10:48:31;;;;;;;0.00;0.00;;;;;;;;;;4987130;28;20018;-69
2022/04/04 10:51:03;;;;;;;0.00;0.00;;;;;;;;;;4978749;28;20018;-69
2022/04/04 10:53:43;;;;;;;0.00;0.00;;;;;;;;;;4986027;28;20077;-70
2022/04/04 10:56:11;;;;;;;0.80;0.28;;;;;;;;;;4970227;28;20024;-69
2022/04/04 10:58:37;;;;;;;0.00;0.00;;;;;;;;;;4979055;28;20328;-72
2022/04/04 11:01:20;;;;;;;0.00;0.00;;;;;;;;;;4979011;28;20032;-68
2022/04/04 11:03:52;;;;;;;0.00;0.00;;;;;;;;;;4985225;28;20053;-73
2022/04/04 11:09:12;;;;;;;0.00;0.00;;;;;;;;;;4985893;28;20030;-73
2022/04/04 11:11:49;;;;;;;0.00;0.00;;;;;;;;;;4986459;28;20244;-71
2022/04/04 11:14:16;;;;;;;0.00;0.00;;;;;;;;;;4979685;28;20038;-70
2022/04/04 11:17:00;;;;;;;0.00;0.00;;;;;;;;;;4987267;28;20030;-71
2022/04/04 11:19:29;;;;;;;0.00;0.00;;;;;;;;;;4986046;28;20053;-75
2022/04/04 11:21:55;;;;;;;0.00;0.00;;;;;;;;;;4980250;28;20022;-75
2022/04/04 11:24:21;;;;;;;0.30;0.00;;;;;;;;;;4987056;28;20441;-74
2022/04/04 11:26:48;;;;;;;0.68;0.00;;;;;;;;;;4987464;28;20018;-74
2022/04/04 11:29:19;;;;;;;0.00;0.00;;;;;;;;;;4985996;28;20093;-74
2022/04/04 11:31:48;;;;;;;0.00;0.00;;;;;;;;;;4986347;28;20190;-72
2022/04/04 11:34:14;;;;;;;0.00;0.00;;;;;;;;;;4985758;28;20453;-75
2022/04/04 11:36:42;;;;;;;0.00;0.00;;;;;;;;;;4986319;28;20069;-69
2022/04/04 11:39:09;;;;;;;0.00;0.00;;;;;;;;;;4984555;28;20032;-70
2022/04/04 11:41:46;;;;;;;0.00;0.00;;;;;;;;;;4985701;28;20026;-69
2022/04/04 11:44:22;;;;;;;0.00;0.00;;;;;;;;;;4984327;28;20070;-69
2022/04/04 11:47:01;;;;;;;0.00;0.00;;;;;;;;;;4985576;28;20033;-70
2022/04/04 11:49:33;;;;;;;1.30;0.65;;;;;;;;;;4983659;28;20068;-72
2022/04/04 11:52:04;;;;;;;0.00;0.00;;;;;;;;;;4985328;28;20030;-70
2022/04/04 11:54:39;;;;;;;0.00;0.00;;;;;;;;;;4985557;28;20348;-71
2022/04/04 11:57:05;;;;;;;0.10;0.00;;;;;;;;;;4991951;28;20194;-74
2022/04/04 11:59:34;;;;;;;0.00;0.00;;;;;;;;;;4996718;28;20034;-73
2022/04/04 12:02:03;;;;;;;0.00;0.00;;;;;;;;;;5012605;28;20045;-69
2022/04/04 12:04:30;;;;;;;0.00;0.00;;;;;;;;;;5012447;28;20211;-73
2022/04/04 12:06:56;;;;;;;0.00;0.00;;;;;;;;;;5012124;28;20017;-72
2022/04/04 12:09:32;;;;;;;0.00;0.00;;;;;;;;;;4991222;28;20066;-72
2022/04/04 12:12:07;;;;;;;0.00;0.00;;;;;;;;;;4994923;28;20026;-70
2022/04/04 12:14:38;;;;;;;0.00;0.00;;;;;;;;;;5003441;28;20037;-72
2022/04/04 12:17:05;;;;;;;0.55;0.00;;;;;;;;;;4999858;28;20077;-72
2022/04/04 12:19:31;;;;;;;0.00;0.00;;;;;;;;;;5006586;28;20021;-72
2022/04/04 12:21:57;;;;;;;0.00;0.00;;;;;;;;;;5011289;28;20038;-71
2022/04/04 12:27:17;;;;;;;0.00;0.00;;;;;;;;;;5013185;28;20026;-72
2022/04/04 12:29:44;;;;;;;0.00;0.00;;;;;;;;;;4996730;28;20017;-71
2022/04/04 12:32:14;;;;;;;0.00;0.00;;;;;;;;;;5009184;28;20022;-71
2022/04/04 12:34:40;;;;;;;2.85;2.63;;;;;;;;;;5012833;28;20351;-71
2022/04/04 12:37:08;;;;;;;0.00;0.00;;;;;;;;;;5014283;28;20312;-71
2022/04/04 12:39:34;;;;;;;0.00;0.00;;;;;;;;;;5011997;28;20013;-72
2022/04/04 12:42:05;;;;;;;0.00;0.00;;;;;;;;;;5008119;28;20021;-68
2022/04/04 12:44:32;;;;;;;0.00;0.00;;;;;;;;;;5012648;28;20021;-68
2022/04/04 12:47:12;;;;;;;0.03;0.03;;;;;;;;;;4998582;28;20030;-70
2022/04/04 12:49:39;;;;;;;0.00;0.00;;;;;;;;;;5011783;28;20396;-71
2022/04/04 12:52:07;;;;;;;0.30;0.03;;;;;;;;;;5011000;28;20514;-71
2022/04/04 12:54:34;;;;;;;0.00;0.00;;;;;;;;;;5012727;28;20656;-72
2022/04/04 12:57:01;;;;;;;0.00;0.00;;;;;;;;;;4998057;28;20030;-72
2022/04/04 12:59:27;;;;;;;0.00;0.00;;;;;;;;;;5014777;28;20084;-72
2022/04/04 13:02:06;;;;;;;0.00;0.00;;;;;;;;;;5002492;28;20156;-72
2022/04/04 13:04:33;;;;;;;0.00;0.00;;;;;;;;;;5012379;28;20018;-71
2022/04/04 13:07:02;;;;;;;0.00;0.00;;;;;;;;;;5016041;28;20041;-72
2022/04/04 13:09:30;;;;;;;0.00;0.00;;;;;;;;;;4998607;28;20077;-70
2022/04/04 13:11:56;;;;;;;0.00;0.00;;;;;;;;;;5005180;28;20026;-72
2022/04/04 13:14:23;;;;;;;0.10;0.00;;;;;;;;;;5000613;28;20032;-71
2022/04/04 13:16:54;;;;;;;0.00;0.00;;;;;;;;;;4985327;28;20493;-73
2022/04/04 13:19:22;;;;;;;0.00;0.00;;;;;;;;;;4997356;28;20282;-74
2022/04/04 13:21:49;;;;;;;0.00;0.00;;;;;;;;;;5010399;28;20028;-73
2022/04/04 13:24:15;;;;;;;0.05;0.00;;;;;;;;;;4995757;28;20276;-75
2022/04/04 13:26:41;;;;;;;0.00;0.00;;;;;;;;;;4997641;28;20018;-71
2022/04/04 13:29:08;;;;;;;0.00;0.00;;;;;;;;;;4997481;28;20019;-73
2022/04/04 13:31:34;;;;;;;0.00;0.00;;;;;;;;;;4997829;28;20045;-76
2022/04/04 13:34:01;;;;;;;0.00;0.00;;;;;;;;;;5003425;28;20530;-79
2022/04/04 13:36:27;;;;;;;0.00;0.00;;;;;;;;;;5010093;28;20044;-75
2022/04/04 13:38:56;;;;;;;0.00;0.00;;;;;;;;;;4980954;28;20150;-77
2022/04/04 13:41:26;;;;;;;0.00;0.00;;;;;;;;;;5008692;28;20632;-77
2022/04/04 13:43:52;;;;;;;0.00;0.00;;;;;;;;;;5016533;28;20563;-76
2022/04/04 13:46:19;;;;;;;0.00;0.00;;;;;;;;;;4998355;28;20057;-78
2022/04/04 13:48:47;;;;;;;0.00;0.00;;;;;;;;;;4996550;28;20019;-78
2022/04/04 13:51:18;;;;;;;0.00;0.00;;;;;;;;;;5006274;28;20252;-79
2022/04/04 13:53:44;;;;;;;0.00;0.00;;;;;;;;;;4998449;28;20363;-73
2022/04/04 13:56:10;;;;;;;0.20;0.20;;;;;;;;;;4999882;28;20034;-72
2022/04/04 13:58:36;;;;;;;0.00;0.00;;;;;;;;;;4996386;28;20018;-72
2022/04/04 14:01:03;;;;;;;0.00;0.00;;;;;;;;;;5000466;28;20029;-69
2022/04/04 14:03:31;;;;;;;0.00;0.00;;;;;;;;;;4995941;28;20250;-68
2022/04/04 14:05:59;;;;;;;0.00;0.00;;;;;;;;;;5006417;28;20018;-71
2022/04/04 14:08:26;;;;;;;0.00;0.00;;;;;;;;;;5015417;28;20040;-68
2022/04/04 14:10:55;;;;;;;0.00;0.00;;;;;;;;;;4984146;28;20037;-68
2022/04/04 14:13:24;;;;;;;0.00;0.00;;;;;;;;;;5013600;28;20030;-70
2022/04/04 14:15:50;;;;;;;0.00;0.00;;;;;;;;;;5012132;28;20058;-70
2022/04/04 14:18:17;;;;;;;0.00;0.00;;;;;;;;;;5014298;28;20034;-69
2022/04/04 14:20:44;;;;;;;0.00;0.00;;;;;;;;;;5007293;28;20026;-71
2022/04/04 14:23:10;;;;;;;0.00;0.00;;;;;;;;;;4995631;28;20019;-71
2022/04/04 14:25:36;;;;;;;0.00;0.00;;;;;;;;;;4997203;28;20033;-71
2022/04/04 14:28:03;;;;;;;0.00;0.00;;;;;;;;;;5001586;28;20048;-70
2022/04/04 14:30:29;;;;;;;0.00;0.00;;;;;;;;;;5001700;28;20633;-67
2022/04/04 14:32:55;;;;;;;0.00;0.00;;;;;;;;;;4996843;28;20025;-68
2022/04/04 14:35:22;;;;;;;0.00;0.00;;;;;;;;;;4994896;28;20349;-68
2022/04/04 14:37:49;;;;;;;0.00;0.00;;;;;;;;;;4995712;28;20053;-72
2022/04/04 14:40:15;;;;;;;0.00;0.00;;;;;;;;;;5014984;28;20090;-69
2022/04/04 14:42:42;;;;;;;0.00;0.00;;;;;;;;;;5006479;28;20033;-70
2022/04/04 14:45:09;;;;;;;0.00;0.00;;;;;;;;;;5006507;28;20061;-74
2022/04/04 14:47:35;;;;;;;0.10;0.00;;;;;;;;;;5008982;28;20093;-74
2022/04/04 14:50:07;;;;;;;0.00;0.00;;;;;;;;;;5014019;28;20014;-68